Time;durP1;ratioP1;P1;durP2;ratioP2;P2;SDS_P1;SDS_P2;PMS_P1;PMS_P2;Temp;Humidity;BMP_temperature;BMP_pressure;BME280_temperature;BME280_humidity;BME280_pressure;Samples;Min_cycle;Max_cycle;Signal;HPM_P1;HPM_P2
2024/03/16 00:00:09;;;;;;;12.00;9.33;;;;;;;2.15;76.54;93614.63;522876;28;812;-68
2024/03/16 00:00:25;;;;;;;12.02;9.07;;;;;;;2.13;77.23;93610.88;522514;28;1010;-69
2024/03/16 00:00:40;;;;;;;11.17;8.83;;;;;;;2.04;77.03;93600.97;522422;28;1676;-69
2024/03/16 00:00:57;;;;;;;12.13;9.30;;;;;;;2.09;76.86;93616.56;522379;28;1286;-68
2024/03/16 00:01:12;;;;;;;13.88;9.63;;;;;;;2.09;77.13;93624.00;520944;28;851;-68
2024/03/16 00:01:28;;;;;;;14.30;10.30;;;;;;;2.06;77.54;93617.53;524944;28;911;-68
2024/03/16 00:01:43;;;;;;;14.45;10.48;;;;;;;2.06;77.12;93622.25;522636;28;1440;-69
2024/03/16 00:01:59;;;;;;;11.60;8.95;;;;;;;2.06;77.12;93617.53;521601;28;797;-68
2024/03/16 00:02:14;;;;;;;11.53;8.87;;;;;;;2.07;77.39;93618.28;522322;28;836;-69
2024/03/16 00:02:30;;;;;;;13.48;9.35;;;;;;;2.06;76.86;93614.06;524962;28;961;-68
2024/03/16 00:02:45;;;;;;;12.83;9.10;;;;;;;2.02;77.03;93614.31;523944;28;843;-68
2024/03/16 00:03:01;;;;;;;12.07;8.87;;;;;;;1.93;77.26;93614.53;522664;28;959;-69
2024/03/16 00:03:16;;;;;;;11.10;8.68;;;;;;;1.82;77.09;93611.03;523341;28;847;-68
2024/03/16 00:03:31;;;;;;;10.57;8.27;;;;;;;1.77;77.57;93623.38;521453;28;1724;-68
2024/03/16 00:03:47;;;;;;;10.63;8.43;;;;;;;1.74;77.67;93618.91;521965;28;848;-68
2024/03/16 00:04:03;;;;;;;11.10;9.03;;;;;;;1.69;77.44;93614.16;522535;28;800;-68
2024/03/16 00:04:18;;;;;;;11.70;9.13;;;;;;;1.71;78.18;93622.59;523695;28;922;-68
2024/03/16 00:04:33;;;;;;;13.50;9.87;;;;;;;1.72;77.73;93615.91;523080;28;864;-68
2024/03/16 00:04:49;;;;;;;14.57;10.35;;;;;;;1.72;77.88;93615.16;522878;28;828;-68
2024/03/16 00:05:05;;;;;;;14.47;10.23;;;;;;;1.75;77.73;93616.94;522952;28;836;-68
2024/03/16 00:05:20;;;;;;;14.50;9.77;;;;;;;1.77;78.11;93614.47;523892;28;792;-68
2024/03/16 00:05:37;;;;;;;12.47;8.87;;;;;;;1.78;77.69;93613.22;523607;28;748;-68
2024/03/16 00:05:52;;;;;;;11.07;8.88;;;;;;;1.74;77.51;93609.97;522748;28;820;-68
2024/03/16 00:06:08;;;;;;;10.77;8.95;;;;;;;1.66;77.80;93611.69;522801;28;986;-68
2024/03/16 00:06:24;;;;;;;10.37;7.93;;;;;;;1.50;78.03;93602.94;524005;28;1569;-68
2024/03/16 00:06:40;;;;;;;10.35;7.75;;;;;;;1.48;78.32;93612.81;521492;28;1050;-69
2024/03/16 00:06:57;;;;;;;10.20;7.77;;;;;;;1.42;78.75;93614.75;522226;28;1726;-69
2024/03/16 00:07:13;;;;;;;9.70;7.97;;;;;;;1.39;78.88;93611.03;521828;28;927;-69
2024/03/16 00:07:28;;;;;;;10.03;8.30;;;;;;;1.40;78.54;93611.78;524298;28;832;-69
2024/03/16 00:07:44;;;;;;;10.20;8.63;;;;;;;1.41;78.76;93608.56;521385;28;911;-69
2024/03/16 00:07:59;;;;;;;10.33;8.63;;;;;;;1.43;78.88;93608.84;522854;28;820;-69
2024/03/16 00:08:15;;;;;;;8.98;7.75;;;;;;;1.46;78.71;93613.31;523275;28;824;-69
2024/03/16 00:08:30;;;;;;;8.83;7.83;;;;;;;1.49;78.56;93609.59;524858;28;946;-69
2024/03/16 00:08:45;;;;;;;9.82;7.82;;;;;;;1.53;79.00;93612.88;522785;28;788;-69
2024/03/16 00:09:01;;;;;;;10.47;7.80;;;;;;;1.57;79.00;93609.16;522870;28;848;-68
2024/03/16 00:09:16;;;;;;;11.33;8.30;;;;;;;1.59;79.32;93612.13;522110;28;890;-69
2024/03/16 00:09:32;;;;;;;10.65;7.97;;;;;;;1.61;78.90;93610.41;522843;28;814;-69
2024/03/16 00:09:47;;;;;;;10.53;7.63;;;;;;;1.56;78.94;93602.25;522895;28;827;-69
2024/03/16 00:10:03;;;;;;;10.07;7.20;;;;;;;1.58;78.63;93599.78;522840;28;760;-70
2024/03/16 00:10:19;;;;;;;8.80;6.93;;;;;;;1.69;78.33;93605.28;523735;28;832;-70
2024/03/16 00:10:34;;;;;;;9.25;7.65;;;;;;;1.71;78.96;93610.97;525005;28;780;-69
2024/03/16 00:10:50;;;;;;;10.05;7.70;;;;;;;1.72;78.67;93613.19;522130;28;1810;-68
2024/03/16 00:11:06;;;;;;;9.63;7.60;;;;;;;1.75;78.69;93606.78;522420;28;1069;-69
2024/03/16 00:11:22;;;;;;;8.73;7.47;;;;;;;1.76;78.40;93610.22;524114;28;832;-69
2024/03/16 00:11:37;;;;;;;9.02;7.43;;;;;;;1.79;78.56;93615.47;524970;28;886;-69
2024/03/16 00:11:54;;;;;;;8.43;7.00;;;;;;;1.81;78.04;93607.56;523322;28;823;-69
2024/03/16 00:12:10;;;;;;;8.25;7.05;;;;;;;1.83;78.14;93607.81;522859;28;800;-69
2024/03/16 00:12:25;;;;;;;9.07;7.30;;;;;;;1.85;78.20;93610.03;524670;28;788;-68
2024/03/16 00:12:40;;;;;;;9.97;7.10;;;;;;;1.85;78.13;93615.47;523499;28;1012;-68
2024/03/16 00:12:57;;;;;;;10.77;7.00;;;;;;;1.86;77.77;93614.25;522887;28;871;-70
2024/03/16 00:13:12;;;;;;;9.45;7.05;;;;;;;1.85;77.95;93604.59;522762;28;1977;-69
2024/03/16 00:13:29;;;;;;;9.93;7.43;;;;;;;1.89;77.90;93605.09;522554;28;1936;-69
2024/03/16 00:13:44;;;;;;;9.18;7.10;;;;;;;1.87;77.69;93607.56;522088;28;964;-68
2024/03/16 00:14:03;;;;;;;8.35;6.90;;;;;;;1.86;77.64;93609.56;521427;28;764;-68
2024/03/16 00:14:18;;;;;;;9.10;6.97;;;;;;;1.85;77.31;93601.88;521846;28;843;-68
2024/03/16 00:14:34;;;;;;;9.48;7.03;;;;;;;1.86;77.18;93614.25;521202;28;768;-68
2024/03/16 00:14:49;;;;;;;9.60;7.40;;;;;;;1.87;77.35;93605.59;520756;28;764;-68
2024/03/16 00:15:05;;;;;;;10.20;8.10;;;;;;;1.89;77.82;93605.09;520909;28;792;-68
2024/03/16 00:15:20;;;;;;;12.93;9.60;;;;;;;1.91;77.74;93611.53;523398;28;875;-68
2024/03/16 00:15:36;;;;;;;11.73;8.80;;;;;;;1.90;76.96;93606.59;523466;28;768;-68
2024/03/16 00:15:51;;;;;;;10.00;8.10;;;;;;;1.87;77.12;93605.59;522724;28;910;-68
2024/03/16 00:16:07;;;;;;;9.52;8.00;;;;;;;1.84;77.67;93605.84;522867;28;804;-68
2024/03/16 00:16:22;;;;;;;9.20;6.97;;;;;;;1.81;77.15;93606.81;524182;28;745;-68
2024/03/16 00:16:37;;;;;;;9.82;6.93;;;;;;;1.77;77.77;93606.28;525031;28;784;-69
2024/03/16 00:16:53;;;;;;;10.00;7.20;;;;;;;1.74;77.47;93618.16;524908;28;772;-68
2024/03/16 00:17:08;;;;;;;9.70;6.85;;;;;;;1.73;77.40;93606.53;524948;28;800;-70
2024/03/16 00:17:24;;;;;;;8.50;6.57;;;;;;;1.73;77.69;93608.50;522391;28;1471;-69
2024/03/16 00:17:39;;;;;;;7.87;6.67;;;;;;;1.74;78.10;93607.25;520941;28;930;-68
2024/03/16 00:17:55;;;;;;;9.70;7.38;;;;;;;1.76;77.71;93610.22;520718;28;1117;-68
2024/03/16 00:18:10;;;;;;;10.17;7.13;;;;;;;1.78;77.58;93607.75;520926;28;915;-68
2024/03/16 00:18:26;;;;;;;8.00;6.57;;;;;;;1.79;77.77;93609.28;523015;28;855;-68
2024/03/16 00:18:41;;;;;;;8.15;6.95;;;;;;;1.80;77.25;93603.34;522715;28;836;-69
2024/03/16 00:18:57;;;;;;;8.10;7.07;;;;;;;1.84;77.67;93608.56;522896;28;867;-69
2024/03/16 00:19:13;;;;;;;7.50;6.55;;;;;;;1.85;77.25;93601.88;522789;28;1106;-69
2024/03/16 00:19:28;;;;;;;7.50;6.10;;;;;;;1.85;76.90;93608.06;523534;28;812;-68
2024/03/16 00:19:47;;;;;;;8.32;6.55;;;;;;;1.85;77.36;93604.59;522722;28;856;-68
2024/03/16 00:20:07;;;;;;;7.53;6.53;;;;;;;1.80;77.36;93602.59;522886;28;1174;-69
2024/03/16 00:20:22;;;;;;;8.57;6.95;;;;;;;1.77;77.29;93609.00;524142;28;879;-68
2024/03/16 00:20:40;;;;;;;7.85;6.75;;;;;;;1.75;77.20;93609.50;524855;28;1130;-68
2024/03/16 00:20:55;;;;;;;11.85;8.07;;;;;;;1.75;77.22;93603.31;522152;28;950;-68
2024/03/16 00:21:11;;;;;;;14.40;9.20;;;;;;;1.75;77.03;93601.34;520699;28;910;-68
2024/03/16 00:21:26;;;;;;;11.87;9.00;;;;;;;1.77;77.45;93598.13;524712;28;761;-68
2024/03/16 00:21:42;;;;;;;11.60;9.47;;;;;;;1.77;77.31;93601.59;524718;28;847;-68
2024/03/16 00:21:57;;;;;;;12.27;9.63;;;;;;;1.79;77.49;93612.75;522746;28;855;-69
2024/03/16 00:22:13;;;;;;;12.27;9.93;;;;;;;1.81;77.57;93598.63;522687;28;776;-68
2024/03/16 00:22:28;;;;;;;13.43;10.37;;;;;;;1.82;77.12;93603.59;522626;28;1147;-68
2024/03/16 00:22:45;;;;;;;13.75;10.25;;;;;;;1.84;77.19;93600.38;522595;28;855;-69
2024/03/16 00:23:01;;;;;;;13.55;10.30;;;;;;;1.86;76.93;93606.09;522710;28;848;-69
2024/03/16 00:23:19;;;;;;;13.95;11.00;;;;;;;1.87;76.95;93602.13;523301;28;906;-69
2024/03/16 00:23:34;;;;;;;13.55;10.68;;;;;;;1.89;76.84;93597.69;521926;28;959;-69
2024/03/16 00:23:50;;;;;;;14.15;10.45;;;;;;;1.90;76.97;93603.88;520521;28;856;-68
2024/03/16 00:24:07;;;;;;;14.17;10.33;;;;;;;1.89;76.72;93603.13;522570;28;895;-68
2024/03/16 00:24:22;;;;;;;12.27;9.25;;;;;;;1.88;76.86;93603.63;524025;28;906;-68
2024/03/16 00:24:38;;;;;;;12.20;9.00;;;;;;;1.87;76.44;93602.88;522713;28;773;-68
2024/03/16 00:24:53;;;;;;;12.93;9.27;;;;;;;1.88;76.84;93598.19;522640;28;852;-68
2024/03/16 00:25:09;;;;;;;12.63;9.17;;;;;;;1.87;77.00;93596.69;522755;28;788;-68
2024/03/16 00:25:25;;;;;;;12.50;9.15;;;;;;;1.87;76.32;93588.50;524035;28;876;-68
2024/03/16 00:25:40;;;;;;;12.27;9.25;;;;;;;1.86;76.87;93606.84;522715;28;958;-68
2024/03/16 00:25:56;;;;;;;11.27;9.13;;;;;;;1.87;76.60;93602.88;522593;28;824;-68
2024/03/16 00:26:11;;;;;;;10.83;8.70;;;;;;;1.88;76.69;93600.91;522526;28;765;-68
2024/03/16 00:26:27;;;;;;;10.38;8.40;;;;;;;1.88;76.56;93603.63;524559;28;836;-68
2024/03/16 00:26:42;;;;;;;10.17;8.57;;;;;;;1.84;76.49;93592.22;521757;28;1677;-68
2024/03/16 00:26:57;;;;;;;9.93;8.25;;;;;;;1.85;76.88;93607.31;522035;28;894;-68
2024/03/16 00:27:13;;;;;;;11.07;8.33;;;;;;;1.82;76.73;93602.88;522132;28;955;-68
2024/03/16 00:27:29;;;;;;;12.15;8.70;;;;;;;1.82;76.57;93598.13;524604;28;799;-68
2024/03/16 00:27:44;;;;;;;11.77;8.97;;;;;;;1.84;76.20;93603.13;523277;28;827;-68
2024/03/16 00:28:00;;;;;;;12.43;8.48;;;;;;;1.84;76.24;93603.13;522693;28;769;-68
2024/03/16 00:28:16;;;;;;;11.63;7.97;;;;;;;1.83;76.79;93604.34;523068;28;792;-69
2024/03/16 00:28:33;;;;;;;11.23;8.82;;;;;;;1.83;76.87;93607.81;524855;28;884;-69
2024/03/16 00:28:50;;;;;;;14.40;10.90;;;;;;;1.82;76.89;93602.88;523144;28;957;-68
2024/03/16 00:29:07;;;;;;;21.00;16.30;;;;;;;1.81;76.67;93604.09;522728;28;840;-69
2024/03/16 00:29:22;;;;;;;28.65;21.23;;;;;;;1.82;76.59;93616.47;524028;28;800;-68
2024/03/16 00:29:38;;;;;;;34.97;26.37;;;;;;;1.82;76.21;93605.59;522210;28;1390;-68
2024/03/16 00:29:53;;;;;;;40.17;30.93;;;;;;;1.82;76.47;93614.47;520602;28;871;-69
2024/03/16 00:30:12;;;;;;;40.38;31.40;;;;;;;1.84;76.21;93608.56;520680;28;844;-69
2024/03/16 00:30:27;;;;;;;40.65;31.25;;;;;;;1.85;76.41;93608.06;522136;28;930;-69
2024/03/16 00:30:43;;;;;;;39.17;31.17;;;;;;;1.86;76.67;93608.81;522052;28;1747;-68
2024/03/16 00:30:58;;;;;;;34.67;28.10;;;;;;;1.81;76.89;93595.91;521489;28;781;-68
2024/03/16 00:31:15;;;;;;;29.27;23.17;;;;;;;1.87;77.08;93613.75;522426;28;993;-68
2024/03/16 00:31:30;;;;;;;24.30;18.83;;;;;;;1.89;76.51;93613.25;522670;28;870;-68
2024/03/16 00:31:48;;;;;;;20.83;15.40;;;;;;;1.90;77.00;93609.31;522335;28;780;-68
2024/03/16 00:32:04;;;;;;;15.50;12.15;;;;;;;1.89;76.72;93614.00;520615;28;859;-68
2024/03/16 00:32:20;;;;;;;14.35;10.32;;;;;;;1.90;76.56;93609.31;523091;28;840;-68
2024/03/16 00:32:37;;;;;;;12.85;9.93;;;;;;;1.91;77.07;93608.06;524845;28;898;-68
2024/03/16 00:32:54;;;;;;;11.48;9.48;;;;;;;1.89;76.61;93610.53;523313;28;1036;-68
2024/03/16 00:33:09;;;;;;;11.98;8.52;;;;;;;1.91;77.02;93608.06;522740;28;832;-68
2024/03/16 00:33:25;;;;;;;11.87;8.07;;;;;;;1.91;76.50;93608.81;524516;28;1975;-69
2024/03/16 00:33:40;;;;;;;12.77;10.02;;;;;;;1.91;77.19;93610.78;524909;28;800;-68
2024/03/16 00:33:56;;;;;;;13.53;11.07;;;;;;;1.90;76.78;93612.78;524920;28;824;-69
2024/03/16 00:34:11;;;;;;;12.73;10.23;;;;;;;1.90;76.57;93610.06;524598;28;776;-68
2024/03/16 00:34:27;;;;;;;11.73;9.60;;;;;;;1.91;76.70;93608.06;521693;28;1056;-68
2024/03/16 00:34:42;;;;;;;11.07;9.50;;;;;;;1.91;76.21;93608.81;522760;28;823;-69
2024/03/16 00:34:58;;;;;;;11.87;9.63;;;;;;;1.92;76.46;93606.84;521507;28;1727;-69
2024/03/16 00:35:13;;;;;;;13.30;9.88;;;;;;;1.91;76.86;93610.78;522655;28;788;-68
2024/03/16 00:35:29;;;;;;;14.63;10.53;;;;;;;1.89;76.50;93614.00;523227;28;765;-69
2024/03/16 00:35:45;;;;;;;15.68;10.65;;;;;;;1.86;77.23;93616.97;522764;28;914;-68
2024/03/16 00:36:00;;;;;;;15.40;10.68;;;;;;;1.84;77.30;93609.28;521519;28;899;-70
2024/03/16 00:36:17;;;;;;;14.03;10.70;;;;;;;1.83;76.87;93610.53;523357;28;776;-68
2024/03/16 00:36:33;;;;;;;15.13;10.85;;;;;;;1.82;77.32;93608.31;524833;28;796;-68
2024/03/16 00:36:48;;;;;;;15.73;11.20;;;;;;;1.83;77.10;93610.53;524883;28;870;-68
2024/03/16 00:37:04;;;;;;;12.87;10.17;;;;;;;1.85;77.64;93607.31;523272;28;783;-69
2024/03/16 00:37:19;;;;;;;11.43;9.20;;;;;;;1.86;77.40;93609.56;523732;28;867;-68
2024/03/16 00:37:35;;;;;;;12.77;9.17;;;;;;;1.88;77.47;93615.25;522393;28;1782;-68
2024/03/16 00:37:50;;;;;;;12.05;8.68;;;;;;;1.86;77.48;93612.28;522578;28;772;-68
2024/03/16 00:38:06;;;;;;;11.90;8.87;;;;;;;1.82;76.83;93611.03;521395;28;749;-69
2024/03/16 00:38:21;;;;;;;12.52;9.50;;;;;;;1.79;77.37;93614.72;523489;28;809;-69
2024/03/16 00:38:37;;;;;;;11.67;9.00;;;;;;;1.73;77.19;93611.97;523681;28;768;-68
2024/03/16 00:38:52;;;;;;;12.60;9.13;;;;;;;1.70;77.24;93612.19;522590;28;820;-68
2024/03/16 00:39:14;;;;;;;13.60;10.10;;;;;;;1.71;77.22;93608.25;522646;28;827;-68
2024/03/16 00:39:30;;;;;;;13.93;10.18;;;;;;;1.64;77.17;93617.63;522569;28;925;-68
2024/03/16 00:39:46;;;;;;;13.23;10.07;;;;;;;1.61;77.54;93621.31;520720;28;864;-68
2024/03/16 00:40:01;;;;;;;12.18;9.60;;;;;;;1.60;77.34;93613.63;520656;28;899;-69
2024/03/16 00:40:19;;;;;;;11.57;9.53;;;;;;;1.60;77.84;93617.09;522323;28;784;-68
2024/03/16 00:40:34;;;;;;;13.23;10.05;;;;;;;1.63;77.99;93615.38;524742;28;872;-68
2024/03/16 00:40:50;;;;;;;13.50;10.27;;;;;;;1.65;77.59;93618.34;522304;28;1699;-68
2024/03/16 00:41:05;;;;;;;13.07;9.65;;;;;;;1.67;77.50;93613.19;522684;28;1140;-69
2024/03/16 00:41:21;;;;;;;13.10;9.30;;;;;;;1.70;77.87;93610.22;523805;28;796;-68
2024/03/16 00:41:37;;;;;;;13.02;9.98;;;;;;;1.73;77.13;93609.25;524875;28;796;-69
2024/03/16 00:41:53;;;;;;;13.77;10.02;;;;;;;1.72;77.37;93607.75;523413;28;792;-68
2024/03/16 00:42:12;;;;;;;12.53;9.67;;;;;;;1.65;77.73;93610.19;522762;28;943;-68
2024/03/16 00:42:27;;;;;;;11.52;9.85;;;;;;;1.58;77.62;93605.97;520657;28;1128;-69
2024/03/16 00:42:43;;;;;;;12.80;9.57;;;;;;;1.52;77.86;93607.88;522732;28;766;-70
2024/03/16 00:42:59;;;;;;;12.63;9.30;;;;;;;1.47;78.46;93609.34;522677;28;776;-68
2024/03/16 00:43:18;;;;;;;11.50;8.98;;;;;;;1.50;78.31;93611.09;523022;28;780;-69
2024/03/16 00:43:33;;;;;;;11.70;9.18;;;;;;;1.50;78.55;93611.09;524774;28;839;-68
2024/03/16 00:43:49;;;;;;;11.17;8.90;;;;;;;1.52;78.40;93605.16;524784;28;768;-68
2024/03/16 00:44:04;;;;;;;11.52;8.93;;;;;;;1.56;78.22;93602.97;524349;28;1079;-68
2024/03/16 00:44:20;;;;;;;11.97;9.20;;;;;;;1.57;78.02;93614.59;523706;28;854;-68
2024/03/16 00:44:36;;;;;;;13.02;9.63;;;;;;;1.52;78.11;93614.09;523261;28;1395;-68
2024/03/16 00:44:51;;;;;;;11.90;9.55;;;;;;;1.50;78.17;93602.94;521407;28;797;-68
2024/03/16 00:45:07;;;;;;;11.52;8.82;;;;;;;1.48;77.98;93608.13;522185;28;875;-70
2024/03/16 00:45:23;;;;;;;12.50;8.93;;;;;;;1.47;78.03;93606.63;523978;28;789;-68
2024/03/16 00:45:38;;;;;;;12.77;10.05;;;;;;;1.46;77.78;93613.31;522562;28;1477;-68
2024/03/16 00:45:54;;;;;;;13.70;10.60;;;;;;;1.45;78.42;93611.81;522591;28;1056;-67
2024/03/16 00:46:09;;;;;;;13.32;10.30;;;;;;;1.29;78.09;93585.28;522552;28;851;-68
2024/03/16 00:46:25;;;;;;;12.87;10.17;;;;;;;1.49;78.04;93615.03;524209;28;784;-68
2024/03/16 00:46:40;;;;;;;13.18;10.30;;;;;;;1.52;78.41;93602.44;524616;28;820;-68
2024/03/16 00:46:56;;;;;;;13.23;10.30;;;;;;;1.56;77.83;93613.13;522703;28;788;-68
2024/03/16 00:47:11;;;;;;;13.10;10.32;;;;;;;1.58;78.37;93605.22;522515;28;918;-68
2024/03/16 00:47:27;;;;;;;12.30;9.90;;;;;;;1.60;78.33;93608.94;520998;28;1351;-68
2024/03/16 00:47:43;;;;;;;11.02;8.77;;;;;;;1.54;77.91;93611.63;521829;28;1122;-68
2024/03/16 00:47:59;;;;;;;12.07;8.95;;;;;;;1.49;77.64;93611.59;522611;28;1145;-68
2024/03/16 00:48:15;;;;;;;12.55;9.20;;;;;;;1.49;77.60;93606.88;523181;28;848;-68
2024/03/16 00:48:30;;;;;;;11.07;9.10;;;;;;;1.49;78.45;93609.59;520644;28;859;-68
2024/03/16 00:48:46;;;;;;;11.77;9.10;;;;;;;1.50;78.07;93610.34;520528;28;1013;-68
2024/03/16 00:49:02;;;;;;;13.27;9.13;;;;;;;1.51;78.08;93607.16;522673;28;968;-68
2024/03/16 00:49:17;;;;;;;12.32;8.60;;;;;;;1.54;78.23;93611.63;523544;28;839;-68
2024/03/16 00:49:34;;;;;;;11.80;8.68;;;;;;;1.55;77.94;93609.66;522920;28;824;-68
2024/03/16 00:49:50;;;;;;;12.68;8.98;;;;;;;1.59;78.16;93609.41;522696;28;938;-68
2024/03/16 00:50:05;;;;;;;13.47;8.90;;;;;;;1.59;78.43;93607.44;522835;28;828;-68
2024/03/16 00:50:21;;;;;;;13.50;9.40;;;;;;;1.57;78.74;93604.47;523793;28;765;-68
2024/03/16 00:50:37;;;;;;;11.80;9.83;;;;;;;1.57;78.79;93609.16;522734;28;1155;-68
2024/03/16 00:50:52;;;;;;;11.93;9.77;;;;;;;1.57;78.59;93609.16;521705;28;1731;-68
2024/03/16 00:51:09;;;;;;;12.10;9.47;;;;;;;1.59;78.76;93601.25;522678;28;847;-68
2024/03/16 00:51:27;;;;;;;12.50;9.73;;;;;;;1.61;78.31;93604.22;524635;28;1164;-68
2024/03/16 00:51:42;;;;;;;13.85;9.80;;;;;;;1.60;78.39;93605.47;525055;28;935;-68
2024/03/16 00:51:58;;;;;;;13.32;9.32;;;;;;;1.59;77.92;93602.00;523223;28;835;-68
2024/03/16 00:52:13;;;;;;;11.93;8.93;;;;;;;1.53;78.29;93612.88;523130;28;1089;-68
2024/03/16 00:52:29;;;;;;;11.63;8.68;;;;;;;1.51;78.37;93609.13;525292;28;993;-68
2024/03/16 00:52:44;;;;;;;11.17;8.40;;;;;;;1.52;78.55;93607.88;525228;28;867;-68
2024/03/16 00:53:00;;;;;;;12.23;8.70;;;;;;;1.54;78.48;93606.19;523469;28;745;-69
2024/03/16 00:53:17;;;;;;;11.80;8.77;;;;;;;1.56;78.69;93607.69;523152;28;1922;-68
2024/03/16 00:53:33;;;;;;;10.90;8.63;;;;;;;1.57;78.62;93603.72;521652;28;1767;-69
2024/03/16 00:53:48;;;;;;;11.00;8.10;;;;;;;1.58;78.30;93611.41;522730;28;879;-69
2024/03/16 00:54:04;;;;;;;11.80;8.00;;;;;;;1.59;78.59;93601.25;523061;28;831;-68
2024/03/16 00:54:19;;;;;;;12.60;8.87;;;;;;;1.60;78.22;93603.50;524095;28;804;-68
2024/03/16 00:54:34;;;;;;;12.10;8.97;;;;;;;1.61;78.08;93604.22;523564;28;844;-68
2024/03/16 00:54:50;;;;;;;12.68;8.65;;;;;;;1.63;78.56;93607.19;523225;28;769;-68
2024/03/16 00:55:06;;;;;;;12.90;8.70;;;;;;;1.45;78.41;93568.28;523262;28;776;-68
2024/03/16 00:55:21;;;;;;;12.18;8.90;;;;;;;1.64;78.18;93604.00;523415;28;878;-68
2024/03/16 00:55:37;;;;;;;12.17;9.47;;;;;;;1.65;77.97;93602.00;523146;28;898;-68
2024/03/16 00:55:53;;;;;;;12.45;10.10;;;;;;;1.64;77.91;93603.25;523041;28;848;-68
2024/03/16 00:56:11;;;;;;;11.63;10.00;;;;;;;1.59;77.43;93602.00;523173;28;832;-68
2024/03/16 00:56:27;;;;;;;13.15;10.85;;;;;;;1.57;77.74;93606.44;524049;28;933;-69
2024/03/16 00:56:43;;;;;;;15.20;11.60;;;;;;;1.58;77.63;93611.41;523159;28;789;-69
2024/03/16 00:56:59;;;;;;;14.55;11.13;;;;;;;1.59;78.02;93602.00;523243;28;864;-69
2024/03/16 00:57:14;;;;;;;14.93;11.50;;;;;;;1.60;77.24;93600.78;522768;28;1743;-69
2024/03/16 00:57:29;;;;;;;16.63;12.17;;;;;;;1.62;77.44;93606.47;523497;28;784;-69
2024/03/16 00:57:45;;;;;;;16.55;12.27;;;;;;;1.64;77.87;93605.97;521503;28;833;-69
2024/03/16 00:58:01;;;;;;;16.83;12.03;;;;;;;1.43;77.49;93576.19;521624;28;994;-69
2024/03/16 00:58:17;;;;;;;15.73;11.18;;;;;;;1.56;76.86;93602.97;523726;28;817;-68
2024/03/16 00:58:32;;;;;;;14.03;10.60;;;;;;;1.51;77.52;93603.69;525145;28;818;-69
2024/03/16 00:58:48;;;;;;;14.73;10.55;;;;;;;1.45;77.09;93600.22;525115;28;899;-68
2024/03/16 00:59:03;;;;;;;13.50;9.93;;;;;;;1.38;77.56;93587.06;525078;28;784;-69
2024/03/16 00:59:19;;;;;;;11.27;9.23;;;;;;;1.47;77.39;93600.47;524732;28;757;-69
2024/03/16 00:59:34;;;;;;;11.57;9.70;;;;;;;1.49;77.34;93600.72;524944;28;1049;-69
2024/03/16 00:59:49;;;;;;;11.97;9.70;;;;;;;1.50;77.76;93605.66;521040;28;745;-68
2024/03/16 01:00:09;;;;;;;10.32;8.75;;;;;;;1.52;77.67;93602.44;521006;28;793;-68
2024/03/16 01:00:24;;;;;;;9.82;8.13;;;;;;;1.54;77.79;93606.19;524728;28;832;-68
2024/03/16 01:00:40;;;;;;;10.77;8.30;;;;;;;1.54;77.78;93606.19;525170;28;820;-68
2024/03/16 01:00:55;;;;;;;11.33;8.77;;;;;;;1.60;77.86;93608.19;521397;28;1626;-68
2024/03/16 01:01:11;;;;;;;11.07;9.07;;;;;;;1.61;77.61;93598.78;522973;28;895;-68
2024/03/16 01:01:29;;;;;;;12.00;9.13;;;;;;;1.63;77.17;93601.75;522983;28;796;-68
2024/03/16 01:01:44;;;;;;;12.48;9.45;;;;;;;1.65;77.48;93593.84;522876;28;848;-68
2024/03/16 01:02:00;;;;;;;12.00;9.40;;;;;;;1.67;77.58;93599.56;521025;28;761;-69
2024/03/16 01:02:15;;;;;;;13.45;9.35;;;;;;;1.69;76.91;93597.09;522322;28;912;-68
2024/03/16 01:02:31;;;;;;;13.30;9.27;;;;;;;1.70;77.10;93598.59;525120;28;820;-68
2024/03/16 01:02:47;;;;;;;12.70;9.50;;;;;;;1.73;77.12;93597.63;525063;28;851;-68
2024/03/16 01:03:03;;;;;;;12.43;9.57;;;;;;;1.55;77.02;93571.56;522831;28;1032;-69
2024/03/16 01:03:18;;;;;;;11.63;9.15;;;;;;;1.75;76.41;93603.31;523943;28;828;-69
2024/03/16 01:03:34;;;;;;;13.13;9.00;;;;;;;1.77;76.79;93600.84;521650;28;1640;-69
2024/03/16 01:03:49;;;;;;;13.87;9.37;;;;;;;1.77;76.87;93598.88;522758;28;781;-69
2024/03/16 01:04:05;;;;;;;13.80;9.43;;;;;;;1.79;76.78;93598.38;521195;28;789;-69
2024/03/16 01:04:20;;;;;;;13.27;9.20;;;;;;;1.80;76.33;93599.88;523595;28;868;-69
2024/03/16 01:04:36;;;;;;;12.65;8.90;;;;;;;1.81;76.38;93602.09;523412;28;883;-69
2024/03/16 01:04:52;;;;;;;12.68;9.15;;;;;;;1.82;76.55;93595.41;523053;28;804;-69
2024/03/16 01:05:07;;;;;;;13.07;9.63;;;;;;;1.82;75.97;93594.69;523110;28;1069;-69
2024/03/16 01:05:26;;;;;;;12.13;9.20;;;;;;;1.84;76.47;93603.13;524429;28;844;-69
2024/03/16 01:05:41;;;;;;;10.52;8.80;;;;;;;1.78;76.46;93603.06;523122;28;821;-69
2024/03/16 01:05:57;;;;;;;10.90;9.20;;;;;;;1.75;75.92;93597.88;523029;28;825;-70
2024/03/16 01:06:13;;;;;;;12.50;9.70;;;;;;;1.67;76.46;93603.03;522156;28;1423;-69
2024/03/16 01:06:28;;;;;;;13.60;9.90;;;;;;;1.64;76.97;93603.25;521943;28;792;-69
2024/03/16 01:06:43;;;;;;;12.63;9.82;;;;;;;1.62;76.64;93600.28;521938;28;855;-69
2024/03/16 01:07:02;;;;;;;12.37;9.47;;;;;;;1.30;76.91;93553.38;523015;28;844;-69
2024/03/16 01:07:18;;;;;;;13.70;9.73;;;;;;;1.61;77.16;93601.50;523637;28;891;-69
2024/03/16 01:07:33;;;;;;;13.43;9.70;;;;;;;1.61;77.04;93596.81;525142;28;871;-69
2024/03/16 01:07:48;;;;;;;13.07;9.68;;;;;;;1.62;77.16;93601.03;523513;28;1036;-69
2024/03/16 01:08:04;;;;;;;12.83;9.87;;;;;;;1.63;76.84;93602.50;522982;28;923;-69
2024/03/16 01:08:19;;;;;;;12.50;9.60;;;;;;;1.65;77.17;93596.56;522941;28;884;-69
2024/03/16 01:08:35;;;;;;;11.90;8.97;;;;;;;1.61;76.72;93594.09;523021;28;752;-69
2024/03/16 01:08:50;;;;;;;13.68;9.23;;;;;;;1.62;76.82;93600.28;522959;28;788;-69
2024/03/16 01:09:06;;;;;;;13.67;9.47;;;;;;;1.61;76.90;93599.53;523084;28;895;-69
2024/03/16 01:09:22;;;;;;;12.15;9.55;;;;;;;1.63;77.47;93601.75;523151;28;866;-69
2024/03/16 01:09:38;;;;;;;12.43;9.20;;;;;;;1.60;77.48;93598.06;523020;28;845;-69
2024/03/16 01:09:55;;;;;;;11.25;8.48;;;;;;;1.48;77.74;93605.41;522984;28;954;-69
2024/03/16 01:10:11;;;;;;;13.70;8.73;;;;;;;1.41;77.90;93597.69;522341;28;1507;-69
2024/03/16 01:10:27;;;;;;;14.23;9.13;;;;;;;1.35;77.53;93591.47;522105;28;887;-69
2024/03/16 01:10:42;;;;;;;11.73;9.00;;;;;;;1.37;77.65;93602.63;522605;28;1676;-69
2024/03/16 01:10:58;;;;;;;12.73;9.55;;;;;;;1.37;78.00;93596.44;521989;28;864;-69
2024/03/16 01:11:13;;;;;;;13.63;9.50;;;;;;;1.35;77.40;93598.88;522723;28;856;-69
2024/03/16 01:11:29;;;;;;;14.02;8.95;;;;;;;1.28;77.92;93591.94;521020;28;1153;-69
2024/03/16 01:11:45;;;;;;;13.45;9.13;;;;;;;1.23;78.30;93597.34;520895;28;816;-69
2024/03/16 01:12:00;;;;;;;10.77;8.53;;;;;;;1.15;77.98;93594.31;520995;28;857;-69
2024/03/16 01:12:15;;;;;;;10.43;8.73;;;;;;;1.12;78.08;93597.25;522399;28;820;-69
2024/03/16 01:12:31;;;;;;;11.30;8.40;;;;;;;1.05;78.42;93601.19;524700;28;937;-69
2024/03/16 01:12:46;;;;;;;11.73;7.60;;;;;;;1.06;78.32;93593.78;522948;28;824;-69
2024/03/16 01:13:02;;;;;;;12.97;7.43;;;;;;;1.05;78.37;93598.47;521107;28;784;-69
2024/03/16 01:13:17;;;;;;;12.30;7.25;;;;;;;1.06;78.54;93596.50;522853;28;1910;-69
2024/03/16 01:13:33;;;;;;;9.60;7.43;;;;;;;1.06;78.85;93599.22;522063;28;1680;-69
2024/03/16 01:13:48;;;;;;;9.30;7.50;;;;;;;1.06;78.73;93593.78;522630;28;765;-69
2024/03/16 01:14:05;;;;;;;8.90;7.17;;;;;;;1.04;78.75;93602.38;523117;28;835;-69
2024/03/16 01:14:20;;;;;;;9.00;7.22;;;;;;;0.99;78.80;93596.94;524002;28;986;-69
2024/03/16 01:14:35;;;;;;;9.15;7.63;;;;;;;0.95;78.94;93597.16;523668;28;890;-69
2024/03/16 01:14:51;;;;;;;9.50;7.97;;;;;;;0.94;78.47;93592.19;523034;28;852;-69
2024/03/16 01:15:07;;;;;;;9.23;7.65;;;;;;;0.95;78.63;93602.59;523092;28;828;-69
2024/03/16 01:15:22;;;;;;;8.48;7.15;;;;;;;0.94;78.88;93598.38;524495;28;777;-69
2024/03/16 01:15:38;;;;;;;8.33;6.70;;;;;;;0.95;79.43;93594.44;523927;28;867;-69
2024/03/16 01:15:53;;;;;;;7.70;6.23;;;;;;;0.97;79.09;93600.13;522973;28;1000;-69
2024/03/16 01:16:08;;;;;;;7.78;5.88;;;;;;;1.00;78.79;93599.16;523229;28;835;-69
2024/03/16 01:16:25;;;;;;;7.60;5.53;;;;;;;1.05;79.35;93603.91;524836;28;825;-69
2024/03/16 01:16:41;;;;;;;6.80;5.55;;;;;;;1.08;78.61;93602.94;525277;28;863;-69
2024/03/16 01:16:56;;;;;;;7.95;5.82;;;;;;;1.09;78.46;93598.97;525251;28;847;-69